createdAt,value
2022-09-11T00:03:27.912Z,60.12
2022-09-11T00:08:31.847Z,58.52
2022-09-11T00:13:34.754Z,62.04
2022-09-11T00:18:37.067Z,66.06
2022-09-11T00:23:39.506Z,63.20
2022-09-11T00:28:41.936Z,61.33
2022-09-11T00:33:44.909Z,60.10
2022-09-11T00:38:48.172Z,59.12
2022-09-11T00:43:52.922Z,59.09
2022-09-11T00:48:57.144Z,65.95
2022-09-11T00:54:00.464Z,63.11
2022-09-11T00:59:04.360Z,60.75
2022-09-11T01:04:07.586Z,59.37
2022-09-11T01:09:09.929Z,63.26
2022-09-11T01:14:12.185Z,64.00
2022-09-11T01:19:22.945Z,61.51
2022-09-11T01:24:28.182Z,60.43
2022-09-11T01:29:40.311Z,59.30
2022-09-11T01:34:52.198Z,62.82
2022-09-11T01:40:01.235Z,65.33
2022-09-11T01:45:05.611Z,62.20
2022-09-11T01:50:10.588Z,60.78
2022-09-11T01:55:15.430Z,60.07
2022-09-11T02:00:18.120Z,59.51
2022-09-11T02:05:25.049Z,61.02
2022-09-11T02:10:33.560Z,65.97
2022-09-11T02:15:40.696Z,62.55
2022-09-11T02:20:45.177Z,61.11
2022-09-11T02:25:48.051Z,60.20
2022-09-11T02:30:50.394Z,59.41
2022-09-11T02:35:54.607Z,63.82
2022-09-11T02:41:03.511Z,62.17
2022-09-11T02:46:14.748Z,60.79
2022-09-11T02:51:19.993Z,59.11
2022-09-11T02:56:31.980Z,61.88
2022-09-11T03:01:37.228Z,64.57
2022-09-11T03:06:39.629Z,61.49
2022-09-11T03:11:43.091Z,60.06
2022-09-11T03:16:45.537Z,60.55
2022-09-11T03:21:47.851Z,65.98
2022-09-11T03:26:50.179Z,62.58
2022-09-11T03:31:52.551Z,60.46
2022-09-11T03:36:54.895Z,58.47
2022-09-11T03:41:58.439Z,64.29
2022-09-11T03:47:00.719Z,62.64
2022-09-11T03:52:03.707Z,60.28
2022-09-11T03:57:07.281Z,59.05
2022-09-11T04:02:09.636Z,63.18
2022-09-11T04:07:11.988Z,63.97
2022-09-11T04:12:14.302Z,60.87
2022-09-11T04:17:17.093Z,59.30
2022-09-11T04:22:19.392Z,62.87
2022-09-11T04:27:23.458Z,63.10
2022-09-11T04:32:25.785Z,61.21
2022-09-11T04:37:28.397Z,59.77
2022-09-11T04:42:30.941Z,59.51
2022-09-11T04:54:13.826Z,61.03
2022-09-11T04:59:17.918Z,59.53
2022-09-11T05:04:25.321Z,64.74
2022-09-11T05:09:28.442Z,61.60
2022-09-11T05:14:32.628Z,60.27
2022-09-11T05:19:34.957Z,59.38
2022-09-11T05:24:37.656Z,60.35
2022-09-11T05:29:39.955Z,65.44
2022-09-11T05:34:42.488Z,61.52
2022-09-11T05:39:44.871Z,59.43
2022-09-11T05:44:47.610Z,64.18
2022-09-11T05:49:49.968Z,63.25
2022-09-11T05:54:53.557Z,60.11
2022-09-11T05:59:56.174Z,58.56
2022-09-11T06:04:58.472Z,62.86
2022-09-11T06:10:03.325Z,61.39
2022-09-11T06:15:06.290Z,58.32
2022-09-11T06:20:10.952Z,62.63
2022-09-11T06:25:13.394Z,61.58
2022-09-11T06:30:16.249Z,58.77
2022-09-11T06:35:18.532Z,63.70
2022-09-11T06:40:20.879Z,60.29
2022-09-11T06:45:23.813Z,61.00
2022-09-11T06:50:26.322Z,62.99
2022-09-11T06:55:30.527Z,59.23
2022-09-11T07:00:33.573Z,63.42
2022-09-11T07:05:36.009Z,59.36
2022-09-11T07:10:38.381Z,59.84
2022-09-11T07:15:40.702Z,62.02
2022-09-11T07:20:43.053Z,57.65
2022-09-11T07:25:45.655Z,61.57
2022-09-11T07:30:48.647Z,59.43
2022-09-11T07:35:52.234Z,58.34
2022-09-11T07:40:54.586Z,62.12
2022-09-11T07:45:57.373Z,60.42
2022-09-11T07:51:02.244Z,57.60
2022-09-11T07:56:05.343Z,60.25
2022-09-11T08:01:09.128Z,60.81
2022-09-11T08:06:17.913Z,55.95
2022-09-11T08:11:23.224Z,59.13
2022-09-11T08:16:26.870Z,59.46
2022-09-11T08:21:30.218Z,59.00
2022-09-11T08:26:35.652Z,58.85
2022-09-11T08:31:38.018Z,59.29
2022-09-11T08:36:40.346Z,59.47
2022-09-11T08:41:47.539Z,58.48
2022-09-11T08:46:53.101Z,57.22
2022-09-11T08:51:58.153Z,56.52
2022-09-11T08:57:05.558Z,55.39
2022-09-11T09:02:10.856Z,54.57
2022-09-11T09:07:21.023Z,52.66
2022-09-11T09:12:32.287Z,51.38
2022-09-11T09:17:49.069Z,51.49
2022-09-11T09:22:54.626Z,51.17
2022-09-11T09:28:01.197Z,51.16
2022-09-11T09:33:13.405Z,51.59
2022-09-11T09:38:25.092Z,51.63
2022-09-11T09:43:49.556Z,52.91
2022-09-11T09:48:52.348Z,52.48
2022-09-11T09:53:56.995Z,52.53
2022-09-11T09:59:02.600Z,52.68
2022-09-11T10:04:09.242Z,52.22
2022-09-11T10:09:14.706Z,51.30
2022-09-11T10:14:49.320Z,45.63
2022-09-11T10:19:43.802Z,46.34
2022-09-11T10:24:46.267Z,46.95
2022-09-11T10:29:50.688Z,46.31
2022-09-11T10:34:53.321Z,46.38
2022-09-11T10:40:08.592Z,45.71
2022-09-11T10:45:14.582Z,45.79
2022-09-11T10:50:18.096Z,45.22
2022-09-11T10:55:20.885Z,43.46
2022-09-11T11:00:25.564Z,43.39
2022-09-11T11:05:31.245Z,42.31
2022-09-11T11:10:36.660Z,42.02
2022-09-11T11:15:44.401Z,41.27
2022-09-11T11:21:07.239Z,42.30
2022-09-11T11:26:17.811Z,41.67
2022-09-11T11:31:27.421Z,41.49
2022-09-11T11:36:37.707Z,42.62
2022-09-11T11:41:44.451Z,41.90
2022-09-11T11:46:52.035Z,40.51
2022-09-11T11:52:00.428Z,41.38
2022-09-11T11:57:09.124Z,40.14
2022-09-11T12:02:11.625Z,39.60
2022-09-11T12:07:16.710Z,40.44
2022-09-11T12:12:20.334Z,40.22
2022-09-11T12:17:27.213Z,40.64
2022-09-11T12:22:33.407Z,40.78
2022-09-11T12:27:36.107Z,40.53
2022-09-11T12:32:41.722Z,41.55
2022-09-11T12:37:51.035Z,42.78
2022-09-11T12:42:58.628Z,42.85
2022-09-11T12:48:04.794Z,42.46
2022-09-11T12:53:14.885Z,41.68
2022-09-11T12:58:18.680Z,40.55
2022-09-11T13:03:23.047Z,41.99
2022-09-11T13:08:28.350Z,42.89
2022-09-11T13:13:34.515Z,42.89
2022-09-11T13:18:37.515Z,41.38
2022-09-11T13:23:42.920Z,40.99
2022-09-11T13:28:46.928Z,40.99
2022-09-11T13:33:51.103Z,41.22
2022-09-11T13:38:55.947Z,43.01
2022-09-11T13:43:59.906Z,43.09
2022-09-11T13:49:06.612Z,43.40
2022-09-11T13:54:13.238Z,42.72
2022-09-11T13:59:18.482Z,41.96
2022-09-11T14:04:23.851Z,43.82
2022-09-11T14:09:26.204Z,44.66
2022-09-11T14:14:29.009Z,45.54
2022-09-11T14:19:33.969Z,46.51
2022-09-11T14:24:37.192Z,46.64
2022-09-11T14:29:39.532Z,44.49
2022-09-11T14:34:41.882Z,42.93
2022-09-11T14:39:47.679Z,42.84
2022-09-11T14:51:29.986Z,40.45
2022-09-11T14:56:32.742Z,38.99
2022-09-11T15:01:36.420Z,39.37
2022-09-11T15:06:38.809Z,39.86
2022-09-11T15:11:41.581Z,41.29
2022-09-11T15:16:46.052Z,42.48
2022-09-11T15:21:49.113Z,42.00
2022-09-11T15:26:52.715Z,40.74
2022-09-11T15:31:55.473Z,38.48
2022-09-11T15:36:57.792Z,37.95
2022-09-11T15:42:01.620Z,38.35
2022-09-11T15:47:04.137Z,38.32
2022-09-11T15:52:06.546Z,37.98
2022-09-11T15:57:09.194Z,36.83
2022-09-11T16:02:43.486Z,36.61
2022-09-11T16:07:47.643Z,36.97
2022-09-11T16:12:50.222Z,40.28
2022-09-11T16:17:52.532Z,43.27
2022-09-11T16:22:55.147Z,45.81
2022-09-11T16:27:57.906Z,48.85
2022-09-11T16:33:01.711Z,50.89
2022-09-11T16:38:07.072Z,52.12
2022-09-11T16:43:09.385Z,53.38
2022-09-11T16:48:12.095Z,54.35
2022-09-11T16:53:14.500Z,55.91
2022-09-11T16:58:17.009Z,56.50
2022-09-11T17:03:19.596Z,57.05
2022-09-11T17:08:22.030Z,58.60
2022-09-11T17:13:24.619Z,59.51
2022-09-11T17:18:26.941Z,60.40
2022-09-11T17:23:29.859Z,61.54
2022-09-11T17:28:32.221Z,61.54
2022-09-11T17:33:36.285Z,56.81
2022-09-11T17:38:39.364Z,59.41
2022-09-11T17:43:42.119Z,63.04
2022-09-11T17:48:45.711Z,57.72
2022-09-11T17:53:49.825Z,60.47
2022-09-11T17:58:53.530Z,62.44
2022-09-11T18:03:57.225Z,57.79
2022-09-11T18:09:01.726Z,60.74
2022-09-11T18:14:04.472Z,61.02
2022-09-11T18:19:07.379Z,57.20
2022-09-11T18:24:10.275Z,61.21
2022-09-11T18:29:14.591Z,63.24
2022-09-11T18:34:19.128Z,57.37
2022-09-11T18:39:21.590Z,62.09
2022-09-11T18:44:25.055Z,61.69
2022-09-11T18:49:27.476Z,56.53
2022-09-11T18:54:30.915Z,61.64
2022-09-11T18:59:34.291Z,61.04
2022-09-11T19:04:36.602Z,58.64
2022-09-11T19:09:43.862Z,63.21
2022-09-11T19:14:48.437Z,62.46
2022-09-11T19:19:51.726Z,57.42
2022-09-11T19:24:54.166Z,63.50
2022-09-11T19:29:56.744Z,61.35
2022-09-11T19:35:00.253Z,59.14
2022-09-11T19:40:03.584Z,64.26
2022-09-11T19:45:06.346Z,60.40
2022-09-11T19:50:09.186Z,60.03
2022-09-11T19:55:11.492Z,64.16
2022-09-11T20:00:14.084Z,59.14
2022-09-11T20:05:16.503Z,61.12
2022-09-11T20:10:19.471Z,62.43
2022-09-11T20:15:21.753Z,59.61
2022-09-11T20:20:24.061Z,65.37
2022-09-11T20:32:05.650Z,58.76
2022-09-11T20:37:10.176Z,63.51
2022-09-11T20:42:13.395Z,61.95
2022-09-11T20:47:15.947Z,58.14
2022-09-11T20:52:18.231Z,62.21
2022-09-11T20:57:20.922Z,63.74
2022-09-11T21:02:23.312Z,58.03
2022-09-11T21:07:25.686Z,62.72
2022-09-11T21:12:28.075Z,62.87
2022-09-11T21:17:30.397Z,58.46
2022-09-11T21:22:32.763Z,60.68
2022-09-11T21:27:35.063Z,66.52
2022-09-11T21:32:37.623Z,62.17
2022-09-11T21:37:39.956Z,59.32
2022-09-11T21:42:42.282Z,60.67
2022-09-11T21:47:44.642Z,65.22
2022-09-11T21:52:46.976Z,60.65
2022-09-11T21:57:49.303Z,58.29
2022-09-11T22:02:51.818Z,63.75
2022-09-11T22:07:54.390Z,64.10
2022-09-11T22:12:56.729Z,60.27
2022-09-11T22:17:59.051Z,58.25
2022-09-11T22:23:02.008Z,62.35
2022-09-11T22:28:04.755Z,64.32
2022-09-11T22:33:07.080Z,60.34
2022-09-11T22:38:09.377Z,58.97
2022-09-11T22:43:11.693Z,63.84
2022-09-11T22:48:13.987Z,65.98
2022-09-11T22:53:16.539Z,61.48
2022-09-11T23:05:00.707Z,62.40
2022-09-11T23:10:03.291Z,65.26
2022-09-11T23:15:06.580Z,61.50
2022-09-11T23:20:10.234Z,60.11
2022-09-11T23:25:13.699Z,59.05
2022-09-11T23:30:16.105Z,65.33
2022-09-11T23:35:18.427Z,64.00
2022-09-11T23:40:20.753Z,61.18
2022-09-11T23:45:23.091Z,59.80
2022-09-11T23:50:25.468Z,59.71
2022-09-11T23:55:27.835Z,65.75
